Time;durP1;ratioP1;P1;durP2;ratioP2;P2;SDS_P1;SDS_P2;PMS_P1;PMS_P2;Temp;Humidity;BMP_temperature;BMP_pressure;BME280_temperature;BME280_humidity;BME280_pressure;Samples;Min_cycle;Max_cycle;Signal;HPM_P1;HPM_P2
2023/10/02 00:01:20;;;;;;;12.30;7.07;;;;;;;18.01;57.19;100781.75;5049585;28;20074;-69
2023/10/02 00:03:48;;;;;;;9.38;6.32;;;;;;;17.84;58.02;100757.16;5049047;28;20028;-68
2023/10/02 00:06:17;;;;;;;8.20;6.22;;;;;;;17.85;58.47;100777.19;5032180;28;20401;-68
2023/10/02 00:08:43;;;;;;;11.38;6.25;;;;;;;17.65;59.26;100777.81;5049819;28;20484;-68
2023/10/02 00:14:34;;;;;;;11.20;7.10;;;;;;;17.72;59.68;100771.81;5050211;28;20250;-67
2023/10/02 00:17:04;;;;;;;14.30;8.65;;;;;;;17.16;60.15;100673.66;4968054;28;20043;-73
2023/10/02 00:19:29;;;;;;;11.75;6.65;;;;;;;17.71;60.38;100757.00;4968170;28;20035;-69
2023/10/02 00:21:57;;;;;;;9.82;6.25;;;;;;;17.72;60.33;100757.88;4952713;28;20146;-70
2023/10/02 00:24:25;;;;;;;11.50;7.10;;;;;;;17.83;60.95;100771.06;4968189;28;20554;-71
2023/10/02 00:26:51;;;;;;;12.40;6.97;;;;;;;17.82;61.49;100770.19;4967838;28;20031;-75
2023/10/02 00:29:17;;;;;;;12.95;7.57;;;;;;;17.88;61.73;100772.88;4968776;28;20117;-69
2023/10/02 00:31:46;;;;;;;14.43;7.65;;;;;;;17.94;62.32;100773.00;4968752;28;20031;-69
2023/10/02 00:34:13;;;;;;;13.88;8.50;;;;;;;17.74;62.27;100727.44;4968643;28;20034;-69
2023/10/02 00:37:05;;;;;;;10.63;8.00;;;;;;;18.07;62.20;100773.13;4968547;28;20034;-71
2023/10/02 00:39:35;;;;;;;12.10;7.80;;;;;;;18.07;62.48;100773.13;4930204;29;20040;-68
2023/10/02 00:44:57;;;;;;;12.02;7.90;;;;;;;18.17;63.15;100780.19;4930058;29;20046;-69
2023/10/02 00:47:40;;;;;;;11.98;7.97;;;;;;;18.02;63.61;100762.63;4929850;29;20050;-69
2023/10/02 00:50:17;;;;;;;12.68;7.85;;;;;;;18.19;63.63;100780.22;4930062;29;20106;-70
2023/10/02 00:53:00;;;;;;;12.02;8.02;;;;;;;18.25;63.73;100782.88;4930437;28;20035;-68
2023/10/02 00:55:32;;;;;;;11.98;7.90;;;;;;;18.30;63.99;100781.19;5000461;28;20547;-68
2023/10/02 00:57:58;;;;;;;13.77;8.90;;;;;;;18.18;63.99;100753.22;4994254;28;20652;-71
2023/10/02 01:00:36;;;;;;;13.32;8.23;;;;;;;18.40;64.26;100788.25;5007571;28;20136;-69
2023/10/02 01:03:08;;;;;;;12.52;8.32;;;;;;;18.37;64.22;100763.84;5007416;28;20132;-70
2023/10/02 01:05:51;;;;;;;12.52;8.75;;;;;;;18.27;64.40;100740.22;4989621;28;20585;-69
2023/10/02 01:08:24;;;;;;;11.48;8.15;;;;;;;18.31;64.35;100745.50;5007024;28;20041;-70
2023/10/02 01:10:58;;;;;;;11.90;8.63;;;;;;;18.14;64.20;100703.50;5034947;28;20033;-65
2023/10/02 01:13:28;;;;;;;16.88;8.93;;;;;;;18.39;64.44;100735.97;5031528;28;20443;-68
2023/10/02 01:15:55;;;;;;;15.45;9.65;;;;;;;18.35;65.36;100715.91;5037217;28;20025;-65
2023/10/02 01:18:27;;;;;;;13.60;9.13;;;;;;;18.43;64.60;100714.25;5053147;28;20392;-67
2023/10/02 01:20:54;;;;;;;11.18;8.48;;;;;;;18.85;63.97;100793.88;5052925;28;20037;-68
2023/10/02 01:23:25;;;;;;;14.25;9.38;;;;;;;18.46;63.71;100723.84;5053414;28;20090;-68
2023/10/02 01:25:57;;;;;;;13.93;9.57;;;;;;;18.76;63.92;100784.22;5053018;28;20021;-67
2023/10/02 01:28:25;;;;;;;12.15;9.18;;;;;;;18.90;64.48;100800.09;5052812;28;20519;-67
2023/10/02 01:30:55;;;;;;;14.02;10.35;;;;;;;18.83;65.89;100774.69;5046266;28;20036;-68
2023/10/02 01:33:22;;;;;;;14.68;10.23;;;;;;;18.97;66.88;100795.75;5020420;28;20101;-70
2023/10/02 01:35:53;;;;;;;21.10;11.82;;;;;;;19.14;67.04;100795.91;5053223;28;20059;-70
2023/10/02 01:38:27;;;;;;;16.00;11.50;;;;;;;19.23;67.29;100795.94;5052977;28;20023;-72
2023/10/02 01:41:09;;;;;;;19.23;12.05;;;;;;;18.81;68.45;100723.25;5052799;28;20032;-70
2023/10/02 01:43:43;;;;;;;16.70;12.77;;;;;;;19.20;68.31;100785.47;5052657;28;20032;-69
2023/10/02 01:46:10;;;;;;;15.40;12.05;;;;;;;19.21;68.94;100783.72;5052816;28;20083;-67
2023/10/02 01:48:41;;;;;;;19.98;12.23;;;;;;;19.19;70.00;100790.66;5052644;28;20322;-70
2023/10/02 01:51:25;;;;;;;17.88;10.70;;;;;;;19.13;71.37;100795.88;5052572;28;20122;-69
2023/10/02 01:54:04;;;;;;;19.73;12.13;;;;;;;18.52;74.58;100724.75;5053320;28;20032;-71
2023/10/02 01:56:34;;;;;;;18.80;12.27;;;;;;;18.47;78.22;100770.91;5039929;28;20031;-72
2023/10/02 01:59:14;;;;;;;;;;;;;;;18.49;80.95;100789.22;5053053;28;20048;-70
2023/10/02 02:01:52;;;;;;;17.75;12.55;;;;;;;18.47;81.14;100781.38;5052820;28;20345;-70
2023/10/02 02:04:28;;;;;;;16.50;12.20;;;;;;;18.35;82.13;100766.44;5052275;28;20485;-71
2023/10/02 02:06:58;;;;;;;16.65;12.23;;;;;;;18.42;83.12;100786.53;5052540;28;20127;-69
2023/10/02 02:09:25;;;;;;;17.80;12.68;;;;;;;18.49;82.98;100802.28;5034576;28;20029;-69
2023/10/02 02:12:07;;;;;;;17.35;12.80;;;;;;;18.42;84.65;100781.31;5052265;28;20036;-68
2023/10/02 02:14:49;;;;;;;17.88;12.20;;;;;;;18.51;83.64;100798.81;5052360;28;20029;-69
2023/10/02 02:17:20;;;;;;;16.63;12.10;;;;;;;18.56;84.44;100799.75;5052066;28;20033;-68
2023/10/02 02:19:49;;;;;;;14.68;11.70;;;;;;;18.38;85.15;100784.78;5052626;28;20033;-68
2023/10/02 02:22:18;;;;;;;17.80;12.68;;;;;;;18.40;87.81;100801.31;5052348;28;20037;-68
2023/10/02 02:24:47;;;;;;;16.02;12.25;;;;;;;18.43;87.39;100792.66;5052037;28;20073;-69
2023/10/02 02:27:14;;;;;;;17.40;12.97;;;;;;;18.52;88.11;100804.94;5048346;28;20029;-69
2023/10/02 02:29:39;;;;;;;16.25;12.68;;;;;;;18.41;87.50;100790.00;5033114;28;20443;-69
2023/10/02 02:32:08;;;;;;;17.70;12.95;;;;;;;17.95;88.78;100726.84;5052208;28;20033;-71
2023/10/02 02:34:33;;;;;;;17.75;12.35;;;;;;;17.79;89.17;100728.38;5052043;28;20074;-67
2023/10/02 02:36:59;;;;;;;17.65;12.60;;;;;;;18.06;89.53;100795.75;5033990;28;20470;-68
2023/10/02 02:39:27;;;;;;;17.25;13.55;;;;;;;17.94;89.43;100793.88;5033743;28;20033;-67
2023/10/02 02:42:18;;;;;;;19.42;12.75;;;;;;;17.93;89.81;100799.94;5051584;28;20112;-68
2023/10/02 02:44:50;;;;;;;16.42;13.35;;;;;;;18.04;89.07;100801.81;5051810;28;20071;-68
2023/10/02 02:47:18;;;;;;;16.67;12.25;;;;;;;18.05;88.57;100803.56;5051787;28;20031;-67
2023/10/02 02:49:48;;;;;;;19.95;12.77;;;;;;;17.98;88.39;100796.53;5051402;28;20025;-69
2023/10/02 02:52:22;;;;;;;16.73;12.32;;;;;;;18.08;87.46;100803.59;5033674;28;20025;-69
2023/10/02 02:54:48;;;;;;;17.13;13.57;;;;;;;18.17;87.76;100808.94;5051618;28;20021;-69
2023/10/02 02:57:15;;;;;;;19.35;13.27;;;;;;;18.27;87.00;100799.47;5033625;28;20396;-70
2023/10/02 02:59:41;;;;;;;15.23;12.43;;;;;;;18.27;87.71;100809.94;5051343;28;20535;-70
2023/10/02 03:02:09;;;;;;;18.40;12.85;;;;;;;18.14;85.81;100808.03;5033487;28;20117;-71
2023/10/02 03:04:38;;;;;;;16.15;13.15;;;;;;;18.12;87.39;100808.03;5051563;28;20548;-70
2023/10/02 03:07:18;;;;;;;17.90;12.73;;;;;;;17.90;86.44;100776.38;5050765;28;20139;-69
2023/10/02 03:09:44;;;;;;;18.75;12.68;;;;;;;17.82;86.24;100745.81;5051214;28;20492;-70
2023/10/02 03:12:10;;;;;;;17.42;13.23;;;;;;;18.19;86.42;100798.50;5051357;28;20016;-67
2023/10/02 03:14:35;;;;;;;16.33;12.60;;;;;;;18.34;85.26;100810.84;5050715;28;20036;-70
2023/10/02 03:19:45;;;;;;;17.10;12.20;;;;;;;18.24;86.18;100800.31;5050853;28;20118;-69
2023/10/02 03:22:11;;;;;;;19.52;13.55;;;;;;;18.37;85.27;100822.22;5050693;28;20017;-69
2023/10/02 03:24:39;;;;;;;19.40;13.05;;;;;;;18.25;84.80;100809.03;5051127;28;20044;-68
2023/10/02 03:27:08;;;;;;;16.73;12.43;;;;;;;18.27;84.41;100808.19;5033154;28;20032;-74
2023/10/02 03:29:34;;;;;;;17.03;12.67;;;;;;;18.06;84.53;100764.41;5051043;28;20037;-69
2023/10/02 03:32:00;;;;;;;16.17;12.15;;;;;;;18.45;83.36;100832.75;5050137;28;20539;-69
2023/10/02 03:34:29;;;;;;;17.27;12.73;;;;;;;18.27;84.08;100818.63;5051003;28;20040;-69
2023/10/02 03:36:59;;;;;;;17.83;11.80;;;;;;;18.27;84.12;100841.28;5050658;28;20480;-69
2023/10/02 03:42:14;;;;;;;;;;;;;;;18.20;84.47;100832.47;5038994;28;20107;-69
2023/10/02 03:44:42;;;;;;;18.42;13.32;;;;;;;17.71;84.57;100751.78;5050045;28;19909;-69
2023/10/02 03:47:12;;;;;;;18.15;12.73;;;;;;;18.22;83.93;100828.16;5050747;28;20025;-68
2023/10/02 03:49:40;;;;;;;17.08;12.25;;;;;;;18.20;83.61;100832.47;5050341;28;20025;-68
2023/10/02 03:52:06;;;;;;;19.08;13.27;;;;;;;18.24;83.66;100846.47;5050265;28;20025;-70
2023/10/02 03:54:34;;;;;;;17.17;12.90;;;;;;;18.29;83.76;100843.91;5050347;28;20029;-68
2023/10/02 03:57:01;;;;;;;16.33;12.95;;;;;;;17.61;82.90;100709.00;5050354;28;20095;-68
2023/10/02 03:59:32;;;;;;;19.02;13.43;;;;;;;18.06;83.58;100758.31;5032459;28;20025;-67
2023/10/02 04:04:46;;;;;;;18.10;12.98;;;;;;;18.69;81.54;100834.75;5038702;28;20126;-70
2023/10/02 04:07:12;;;;;;;16.30;12.82;;;;;;;18.53;80.20;100823.25;5042711;28;20048;-68
2023/10/02 04:09:38;;;;;;;18.92;12.80;;;;;;;18.64;80.86;100851.25;5049486;28;20028;-69
2023/10/02 04:12:12;;;;;;;18.70;14.60;;;;;;;18.61;81.09;100859.94;5050050;28;20040;-69
2023/10/02 04:14:38;;;;;;;17.45;12.82;;;;;;;18.52;80.56;100844.16;5050323;28;20032;-69
2023/10/02 04:17:21;;;;;;;17.20;12.82;;;;;;;18.68;80.75;100863.47;5043820;28;20036;-71
2023/10/02 04:19:51;;;;;;;16.73;13.10;;;;;;;18.67;81.06;100862.63;5048073;28;20040;-69
2023/10/02 04:22:25;;;;;;;18.30;12.60;;;;;;;18.56;81.11;100865.13;5049936;28;20530;-69
2023/10/02 04:24:59;;;;;;;18.05;13.35;;;;;;;18.49;80.69;100838.88;5031984;28;20025;-67
2023/10/02 04:27:26;;;;;;;20.92;13.13;;;;;;;18.76;80.30;100872.28;5027995;28;20032;-74
2023/10/02 04:30:20;;;;;;;17.92;13.77;;;;;;;18.78;80.93;100877.53;5014268;28;20037;-69
2023/10/02 04:32:49;;;;;;;17.98;13.18;;;;;;;18.70;81.16;100877.47;5049135;28;20533;-71
2023/10/02 04:38:07;;;;;;;22.30;13.77;;;;;;;18.33;81.53;100824.78;5048764;28;20085;-68
2023/10/02 04:40:52;;;;;;;21.85;13.77;;;;;;;18.71;81.11;100882.69;5049106;28;20037;-67
2023/10/02 04:43:25;;;;;;;20.23;14.30;;;;;;;18.69;80.44;100888.78;5032082;28;20487;-70
2023/10/02 04:46:02;;;;;;;20.67;15.35;;;;;;;18.57;80.18;100879.94;5035611;28;20044;-70
2023/10/02 04:48:38;;;;;;;19.80;14.90;;;;;;;18.37;79.72;100869.28;5032249;28;20033;-69
2023/10/02 04:51:07;;;;;;;18.00;13.57;;;;;;;18.35;79.44;100886.66;5031708;28;20485;-71
2023/10/02 04:53:34;;;;;;;22.67;13.98;;;;;;;18.35;79.38;100885.81;5044724;28;20052;-68
2023/10/02 04:58:51;;;;;;;18.00;12.45;;;;;;;17.97;79.52;100821.78;5053595;28;20036;-67
2023/10/02 05:01:29;;;;;;;18.40;13.35;;;;;;;18.43;79.87;100899.84;5053396;28;20473;-68
2023/10/02 05:03:58;;;;;;;19.08;13.48;;;;;;;18.46;80.24;100907.72;5034180;28;20037;-69
2023/10/02 05:06:44;;;;;;;16.60;13.20;;;;;;;18.24;80.08;100899.63;5054054;28;20064;-69
2023/10/02 05:11:52;;;;;;;17.63;13.45;;;;;;;18.11;80.76;100919.47;5053322;28;20021;-68
2023/10/02 05:14:27;;;;;;;16.05;12.38;;;;;;;17.95;80.87;100892.28;5040316;28;20025;-69
2023/10/02 05:17:19;;;;;;;18.98;12.57;;;;;;;17.22;81.07;100782.44;5052770;28;20488;-69
2023/10/02 05:20:00;;;;;;;18.45;13.27;;;;;;;17.88;81.47;100915.66;5053290;28;20029;-68
2023/10/02 05:22:27;;;;;;;16.83;12.23;;;;;;;17.46;81.02;100858.47;5052924;28;20028;-68
2023/10/02 05:25:04;;;;;;;16.95;13.30;;;;;;;17.78;82.05;100927.69;5053241;28;20028;-66
2023/10/02 05:27:31;;;;;;;18.80;14.60;;;;;;;17.77;83.22;100929.44;5053439;28;20033;-69
2023/10/02 05:30:00;;;;;;;18.80;14.65;;;;;;;17.86;83.56;100940.88;5052811;28;20042;-69
2023/10/02 05:32:35;;;;;;;;;;;;;;;17.92;83.79;100936.63;5053733;28;20159;-69
2023/10/02 05:37:45;;;;;;;20.05;15.07;;;;;;;18.05;83.46;100935.06;5053048;28;20028;-74
2023/10/02 05:45:40;;;;;;;18.88;13.85;;;;;;;18.26;83.84;100941.47;5052870;28;20037;-68
2023/10/02 05:48:07;;;;;;;19.90;13.98;;;;;;;18.33;83.29;100945.91;5052372;28;20025;-67
2023/10/02 05:50:34;;;;;;;19.55;14.68;;;;;;;18.41;82.75;100952.09;5052690;28;20491;-67
2023/10/02 05:52:59;;;;;;;22.48;14.55;;;;;;;18.48;83.10;100963.53;5033933;28;20112;-67
2023/10/02 05:55:25;;;;;;;21.60;14.70;;;;;;;18.58;83.10;100943.59;5035198;28;20031;-68
2023/10/02 05:57:54;;;;;;;25.23;14.77;;;;;;;18.61;82.14;100941.00;5052115;28;20047;-67
2023/10/02 06:00:20;;;;;;;17.45;14.18;;;;;;;18.79;82.31;100966.50;5052919;28;20025;-68
2023/10/02 06:02:58;;;;;;;17.00;13.65;;;;;;;18.84;81.75;100963.91;5051433;28;20107;-68
2023/10/02 06:05:23;;;;;;;17.58;13.77;;;;;;;18.77;81.77;100970.81;5052470;28;20084;-68
2023/10/02 06:07:51;;;;;;;19.90;14.50;;;;;;;18.90;80.76;100967.53;5052838;28;20453;-69
2023/10/02 06:10:26;;;;;;;22.13;14.73;;;;;;;18.92;79.90;100937.00;5051718;28;20029;-70
2023/10/02 06:13:05;;;;;;;16.33;13.27;;;;;;;19.23;79.14;100967.84;5052694;28;20052;-69
2023/10/02 06:15:43;;;;;;;17.17;13.95;;;;;;;19.37;78.51;100973.19;5052614;28;20078;-70
2023/10/02 06:18:09;;;;;;;16.90;13.85;;;;;;;19.46;77.11;100965.41;5052265;28;20041;-69
2023/10/02 06:20:35;;;;;;;19.45;13.98;;;;;;;19.60;77.01;100972.50;5052006;28;20028;-69
2023/10/02 06:23:19;;;;;;;16.50;13.60;;;;;;;19.40;77.21;100965.34;5034112;28;20120;-70
2023/10/02 06:25:46;;;;;;;17.90;12.68;;;;;;;19.55;76.69;100982.94;5051974;28;20386;-69
2023/10/02 06:28:25;;;;;;;15.93;12.82;;;;;;;19.75;76.62;100990.97;5051813;28;20025;-71
2023/10/02 06:30:51;;;;;;;15.80;11.40;;;;;;;19.82;74.72;100969.16;5051395;28;20033;-68
2023/10/02 06:33:17;;;;;;;15.65;12.43;;;;;;;20.06;74.20;101001.66;5051397;28;20025;-71
2023/10/02 06:35:56;;;;;;;15.13;11.15;;;;;;;20.20;73.46;101002.66;5051643;28;20025;-69
2023/10/02 06:38:25;;;;;;;19.58;12.73;;;;;;;20.29;73.26;101007.06;5051811;28;20017;-68
2023/10/02 06:40:57;;;;;;;13.98;12.25;;;;;;;20.41;72.67;100997.50;5052116;28;20112;-69
2023/10/02 06:43:29;;;;;;;15.68;12.10;;;;;;;20.63;71.85;101011.59;5051867;28;20028;-67
2023/10/02 06:46:16;;;;;;;15.25;11.30;;;;;;;20.64;71.36;101013.34;5051158;28;20098;-70
2023/10/02 06:48:46;;;;;;;16.95;10.18;;;;;;;20.51;69.88;101000.19;5051387;28;20083;-68
2023/10/02 06:51:15;;;;;;;12.48;10.68;;;;;;;20.30;70.99;101015.78;5046217;28;20036;-69
2023/10/02 06:53:41;;;;;;;14.27;11.55;;;;;;;20.54;71.32;101015.06;5042652;28;20476;-71
2023/10/02 06:56:10;;;;;;;14.10;10.77;;;;;;;20.71;70.09;101019.50;5039187;28;20033;-70
2023/10/02 06:58:46;;;;;;;;;;;;;;;20.83;69.19;101017.81;5038336;28;20103;-68
2023/10/02 07:01:19;;;;;;;14.82;9.73;;;;;;;20.80;68.83;101009.06;5042445;28;19944;-68
2023/10/02 07:03:52;;;;;;;17.35;10.95;;;;;;;21.03;68.34;101011.75;5042756;28;20128;-68
2023/10/02 07:06:19;;;;;;;15.75;10.98;;;;;;;21.07;69.59;101000.41;5060417;28;20053;-67
2023/10/02 07:08:48;;;;;;;15.20;10.20;;;;;;;20.84;67.26;100953.97;5047888;28;20104;-70
2023/10/02 07:11:14;;;;;;;15.52;9.25;;;;;;;21.30;64.72;101015.31;5047687;28;20033;-68
2023/10/02 07:13:51;;;;;;;13.35;7.55;;;;;;;21.37;61.96;101006.56;5051047;28;20029;-69
2023/10/02 07:16:19;;;;;;;11.80;7.05;;;;;;;21.34;62.90;100998.66;5051271;28;20120;-70
2023/10/02 07:18:53;;;;;;;14.70;6.45;;;;;;;21.09;60.83;100987.28;5050610;28;20044;-72
2023/10/02 07:21:19;;;;;;;9.70;6.10;;;;;;;20.99;61.01;100983.75;5035994;28;20124;-71
2023/10/02 07:23:45;;;;;;;12.27;7.43;;;;;;;21.01;61.84;100992.50;5037748;28;20044;-69
2023/10/02 07:26:19;;;;;;;11.73;6.63;;;;;;;21.04;62.40;101008.25;5050815;28;20493;-71
2023/10/02 07:28:52;;;;;;;9.10;6.63;;;;;;;21.05;63.01;101017.88;5038816;28;20029;-70
2023/10/02 07:31:21;;;;;;;10.85;5.80;;;;;;;21.10;61.28;101018.78;5050834;28;20044;-71
2023/10/02 07:33:46;;;;;;;9.55;5.53;;;;;;;20.65;61.07;100936.41;5050673;28;20025;-69
2023/10/02 07:36:15;;;;;;;10.50;6.35;;;;;;;20.40;60.67;100896.97;5049012;28;20060;-69
2023/10/02 07:38:42;;;;;;;7.95;4.35;;;;;;;21.13;57.14;101023.16;5049648;28;20075;-69
2023/10/02 07:41:23;;;;;;;8.30;4.03;;;;;;;21.04;57.73;101018.75;5050345;28;20033;-73
2023/10/02 07:43:53;;;;;;;6.47;3.40;;;;;;;21.13;55.32;101031.03;5032346;28;20029;-66
2023/10/02 07:46:21;;;;;;;8.02;4.13;;;;;;;20.96;54.74;101020.47;5049706;28;20480;-71
2023/10/02 07:49:00;;;;;;;9.48;4.30;;;;;;;21.15;55.04;101037.16;5047564;28;20029;-69
2023/10/02 07:51:32;;;;;;;8.25;4.25;;;;;;;20.74;55.01;100957.44;5035899;28;20432;-69
2023/10/02 07:53:59;;;;;;;10.68;4.13;;;;;;;21.28;54.19;101033.69;5048025;28;20044;-68
2023/10/02 07:56:25;;;;;;;6.47;3.47;;;;;;;21.34;52.99;101032.81;5048316;28;20049;-72
2023/10/02 07:58:55;;;;;;;10.75;4.43;;;;;;;21.35;53.28;101029.31;5047810;28;20017;-68
2023/10/02 08:01:25;;;;;;;20.95;4.80;;;;;;;21.00;52.82;100969.75;5048153;28;20029;-70
2023/10/02 08:03:51;;;;;;;9.00;3.20;;;;;;;21.50;52.52;101034.56;5038805;28;20030;-69
2023/10/02 08:06:21;;;;;;;8.25;3.00;;;;;;;21.50;51.97;101025.84;5048161;28;20221;-70
2023/10/02 08:09:35;;;;;;;7.20;3.83;;;;;;;21.72;51.88;101039.91;5029968;28;20420;-69
2023/10/02 08:12:01;;;;;;;6.65;3.60;;;;;;;21.87;51.11;101039.00;5047708;28;20472;-69
2023/10/02 08:14:38;;;;;;;6.28;3.47;;;;;;;21.87;50.91;101032.84;5048178;28;20030;-68
2023/10/02 08:22:37;;;;;;;9.60;3.78;;;;;;;22.45;48.71;101022.28;5048059;28;20044;-69
2023/10/02 08:25:13;;;;;;;7.72;3.72;;;;;;;22.68;49.20;101029.19;5046908;28;20025;-69
2023/10/02 08:27:40;;;;;;;14.88;4.78;;;;;;;22.86;48.92;101016.81;5047572;28;20039;-70
2023/10/02 08:30:18;;;;;;;6.50;3.78;;;;;;;23.09;48.18;101011.41;5047525;28;20029;-68
2023/10/02 08:32:48;;;;;;;8.02;4.18;;;;;;;22.99;49.27;101008.00;5047325;28;20097;-69
2023/10/02 08:35:14;;;;;;;7.15;4.05;;;;;;;22.64;48.34;100950.25;5028713;28;20445;-70
2023/10/02 08:37:40;;;;;;;7.65;3.95;;;;;;;22.87;50.23;101021.22;5009042;28;20099;-70
2023/10/02 08:40:08;;;;;;;9.60;4.13;;;;;;;22.77;51.74;101023.88;5008310;28;20052;-72
2023/10/02 08:42:34;;;;;;;7.97;4.18;;;;;;;22.74;50.99;101013.38;5005043;28;20045;-67
2023/10/02 08:45:00;;;;;;;8.13;4.38;;;;;;;22.56;51.06;101013.47;5005340;28;21105;-69
2023/10/02 08:47:26;;;;;;;8.52;4.80;;;;;;;22.47;51.11;101019.63;5005394;28;20033;-68
2023/10/02 08:50:04;;;;;;;9.32;4.45;;;;;;;22.12;52.40;100966.22;5005216;28;20432;-70
2023/10/02 08:52:38;;;;;;;9.10;4.28;;;;;;;22.45;52.83;101019.66;5005570;28;20030;-68
2023/10/02 08:55:48;;;;;;;10.00;4.45;;;;;;;22.50;52.28;101024.88;5004255;28;20448;-69
2023/10/02 08:58:17;;;;;;;7.00;4.43;;;;;;;22.34;53.47;101013.47;5008698;28;20045;-71
2023/10/02 09:03:48;;;;;;;7.75;4.00;;;;;;;22.38;54.44;101035.44;4997805;28;20046;-69
2023/10/02 09:06:35;;;;;;;;;;;;;;;22.36;54.15;101035.41;5016398;28;20053;-69
2023/10/02 09:09:21;;;;;;;10.38;4.40;;;;;;;22.06;53.25;100999.56;4995686;28;20486;-72
2023/10/02 09:11:52;;;;;;;8.90;4.53;;;;;;;22.18;51.66;101028.44;5018182;28;20033;-71
2023/10/02 09:17:21;;;;;;;7.10;3.90;;;;;;;22.50;51.89;101029.25;5040541;28;20120;-68
2023/10/02 09:19:53;;;;;;;7.40;3.65;;;;;;;22.91;48.33;101026.44;5050231;28;20120;-73
2023/10/02 09:22:20;;;;;;;8.43;3.92;;;;;;;23.16;48.17;101028.97;5047901;28;20041;-69
2023/10/02 09:25:09;;;;;;;6.20;3.33;;;;;;;23.13;46.71;101021.06;5027443;28;20473;-70
2023/10/02 09:27:41;;;;;;;7.22;3.78;;;;;;;23.21;48.37;101010.50;5038433;28;20567;-69
2023/10/02 09:30:21;;;;;;;10.57;4.10;;;;;;;23.09;47.04;101009.66;5049172;28;20385;-69
2023/10/02 09:32:51;;;;;;;8.90;3.67;;;;;;;23.34;46.21;101008.66;5042650;28;20048;-67
2023/10/02 09:35:42;;;;;;;9.52;4.78;;;;;;;23.77;47.48;101028.53;5047808;28;20032;-68
2023/10/02 09:38:10;;;;;;;9.15;4.50;;;;;;;23.87;48.21;101030.19;5033625;28;20516;-71
2023/10/02 09:43:25;;;;;;;10.40;5.07;;;;;;;23.86;49.93;100980.97;5041714;28;20043;-70
2023/10/02 09:46:15;;;;;;;13.43;5.53;;;;;;;24.08;49.58;100986.06;5039387;28;20116;-69
2023/10/02 09:49:01;;;;;;;11.85;4.97;;;;;;;24.30;47.54;101035.06;5051361;28;20028;-70
2023/10/02 09:51:38;;;;;;;13.88;4.80;;;;;;;24.26;48.39;101029.81;5049717;28;20040;-70
2023/10/02 09:54:13;;;;;;;14.18;5.60;;;;;;;24.13;49.60;101010.63;5049584;28;20574;-69
2023/10/02 09:57:04;;;;;;;15.10;5.05;;;;;;;24.21;48.44;101043.94;5041226;28;20038;-68
2023/10/02 09:59:37;;;;;;;8.18;4.00;;;;;;;24.26;48.26;101043.88;5046510;28;20549;-68
2023/10/02 10:02:15;;;;;;;13.00;4.45;;;;;;;24.36;48.64;101040.28;5043007;28;20549;-70
2023/10/02 10:05:00;;;;;;;17.75;4.88;;;;;;;24.55;46.99;101048.84;5047947;28;20649;-69
2023/10/02 10:13:59;;;;;;;8.52;4.75;;;;;;;24.27;46.47;100970.91;5051563;28;20094;-72
2023/10/02 10:16:23;;;;;;;16.30;4.85;;;;;;;24.70;47.44;101039.91;5050734;28;20183;-71
2023/10/02 10:22:00;;;;;;;8.20;4.28;;;;;;;24.50;46.74;101044.50;5027507;28;20426;-68
2023/10/02 10:24:56;;;;;;;12.40;4.50;;;;;;;24.45;46.39;101033.13;5046429;28;20484;-69
2023/10/02 10:27:43;;;;;;;7.38;4.30;;;;;;;24.48;47.40;101036.59;5029842;28;20118;-68
2023/10/02 10:35:40;;;;;;;10.30;4.55;;;;;;;24.23;47.02;101028.09;4970629;28;20070;-68
2023/10/02 10:38:34;;;;;;;25.00;5.07;;;;;;;24.20;46.15;101031.66;4970305;28;20055;-68
2023/10/02 10:41:00;;;;;;;11.30;4.20;;;;;;;24.16;46.17;101029.06;4967449;28;20403;-71
2023/10/02 10:46:16;;;;;;;10.15;4.40;;;;;;;24.01;46.33;101028.34;4970642;28;20426;-68
2023/10/02 10:48:48;;;;;;;6.47;3.85;;;;;;;24.04;45.85;101025.66;4970186;28;20046;-68
2023/10/02 10:51:27;;;;;;;14.23;5.30;;;;;;;24.10;46.24;101031.75;4958443;28;20121;-68
2023/10/02 10:54:00;;;;;;;;;;;;;;;24.35;45.61;101022.69;4970158;28;20034;-72
2023/10/02 10:56:27;;;;;;;9.43;4.00;;;;;;;24.59;44.14;101014.50;4970331;28;19914;-69
2023/10/02 10:59:09;;;;;;;9.00;4.28;;;;;;;24.88;44.36;101019.41;4945476;28;20139;-68
2023/10/02 11:01:35;;;;;;;17.85;4.25;;;;;;;24.83;43.92;100969.28;4907926;29;20546;-71
2023/10/02 11:04:03;;;;;;;10.48;4.00;;;;;;;25.16;42.46;101005.81;4946731;29;20066;-69
2023/10/02 11:06:50;;;;;;;13.75;4.28;;;;;;;25.29;42.67;101004.72;4944981;29;20064;-68
2023/10/02 11:09:16;;;;;;;10.82;4.43;;;;;;;25.34;43.27;100983.50;4939095;28;20046;-68
2023/10/02 11:11:53;;;;;;;9.18;3.72;;;;;;;25.42;43.16;101009.84;5002474;28;20034;-68
2023/10/02 11:14:34;;;;;;;9.18;4.10;;;;;;;25.46;42.22;100999.22;5009984;28;20125;-69
2023/10/02 11:17:04;;;;;;;11.48;4.15;;;;;;;25.47;42.12;100995.66;4931598;29;20123;-69
2023/10/02 11:22:21;;;;;;;9.80;4.75;;;;;;;25.39;42.52;101002.84;4931438;29;19959;-69
2023/10/02 11:24:54;;;;;;;10.80;4.53;;;;;;;25.39;42.36;101002.84;4931638;29;20055;-67
2023/10/02 11:27:21;;;;;;;8.02;4.00;;;;;;;25.17;43.64;100965.28;4919921;29;20459;-66
2023/10/02 11:30:03;;;;;;;9.50;4.57;;;;;;;25.34;43.74;101004.66;4931286;29;20047;-68
2023/10/02 11:32:54;;;;;;;8.60;3.65;;;;;;;24.37;42.18;100808.91;4915512;29;20042;-68
2023/10/02 11:35:29;;;;;;;8.63;4.20;;;;;;;25.60;41.25;100996.31;4930963;29;20446;-69
2023/10/02 11:37:56;;;;;;;11.40;4.22;;;;;;;25.57;42.93;101001.69;4935398;28;20533;-68
2023/10/02 11:40:25;;;;;;;9.57;4.15;;;;;;;25.60;41.27;100998.97;4969945;28;20585;-72
2023/10/02 11:42:53;;;;;;;8.13;4.17;;;;;;;25.74;40.59;100992.56;4969489;28;20042;-68
2023/10/02 11:45:19;;;;;;;10.90;3.97;;;;;;;25.66;41.07;100971.56;4969763;28;20349;-68
2023/10/02 11:48:07;;;;;;;8.35;3.60;;;;;;;25.41;41.84;100963.16;4969377;28;20194;-69
2023/10/02 11:50:33;;;;;;;10.95;3.70;;;;;;;25.60;40.82;100990.19;4950244;29;20054;-70
2023/10/02 11:52:59;;;;;;;7.45;3.50;;;;;;;25.75;41.09;100997.81;4950098;29;20066;-68
2023/10/02 11:55:24;;;;;;;8.63;3.92;;;;;;;25.83;40.64;100987.09;4997115;28;20077;-68
2023/10/02 11:57:51;;;;;;;9.55;4.03;;;;;;;25.92;41.26;100992.25;5008413;28;20058;-68
2023/10/02 12:00:21;;;;;;;11.00;4.10;;;;;;;25.95;39.49;100992.16;4991018;28;20021;-67
2023/10/02 12:02:47;;;;;;;7.78;4.53;;;;;;;25.79;39.29;100958.97;5008314;28;20045;-68
2023/10/02 12:05:13;;;;;;;9.98;4.13;;;;;;;25.89;39.89;101007.28;5008240;28;20080;-69
2023/10/02 12:07:39;;;;;;;7.35;3.55;;;;;;;25.86;39.35;100995.00;5007798;28;20085;-68
2023/10/02 12:10:06;;;;;;;8.05;4.40;;;;;;;25.94;39.42;100990.41;5008406;28;20041;-70
2023/10/02 12:12:31;;;;;;;12.35;4.60;;;;;;;25.87;39.90;100993.22;5007965;28;20025;-68
2023/10/02 12:14:57;;;;;;;11.73;4.38;;;;;;;25.81;39.41;100989.78;5007871;28;20045;-73
2023/10/02 12:17:23;;;;;;;11.48;4.22;;;;;;;25.80;40.01;101003.03;5008160;28;20026;-70
2023/10/02 12:19:50;;;;;;;8.15;3.53;;;;;;;25.88;39.23;100993.19;5008116;28;20428;-68
2023/10/02 12:22:15;;;;;;;7.68;4.35;;;;;;;25.73;38.96;100969.66;5007827;28;20045;-66
2023/10/02 12:24:41;;;;;;;8.40;3.78;;;;;;;25.37;39.80;100935.91;4991606;28;20056;-72
2023/10/02 12:27:10;;;;;;;9.82;3.88;;;;;;;25.55;40.21;100961.16;5005103;28;20525;-68
2023/10/02 12:29:36;;;;;;;7.18;3.90;;;;;;;25.64;39.44;100987.44;5003651;28;20076;-69
2023/10/02 12:32:03;;;;;;;7.68;3.45;;;;;;;25.71;39.25;100989.97;5025575;28;20034;-68
2023/10/02 12:34:29;;;;;;;8.18;3.72;;;;;;;25.74;40.33;100995.22;5010499;28;20030;-73
2023/10/02 12:36:55;;;;;;;7.10;3.63;;;;;;;25.65;39.49;100978.59;4997554;28;20695;-68
2023/10/02 12:39:22;;;;;;;10.30;3.60;;;;;;;25.68;39.60;100993.53;5010356;28;20030;-68
2023/10/02 12:41:48;;;;;;;9.20;4.13;;;;;;;25.65;40.07;100986.53;4997179;28;20022;-68
2023/10/02 12:44:14;;;;;;;8.45;3.63;;;;;;;25.50;39.90;100989.47;5009685;28;20032;-67